sensor_id;sensor_type;location;lat;lon;timestamp;temperature;humidity
5118;DHT22;2578;51.622;7.046;2023-10-31T00:00:44;12.90;99.90
5118;DHT22;2578;51.622;7.046;2023-10-31T00:03:10;12.80;99.90
5118;DHT22;2578;51.622;7.046;2023-10-31T00:05:36;12.80;99.90
5118;DHT22;2578;51.622;7.046;2023-10-31T00:08:02;12.80;99.90
5118;DHT22;2578;51.622;7.046;2023-10-31T00:10:28;12.70;99.90
5118;DHT22;2578;51.622;7.046;2023-10-31T00:12:53;12.70;99.90
5118;DHT22;2578;51.622;7.046;2023-10-31T00:15:19;12.60;99.90
5118;DHT22;2578;51.622;7.046;2023-10-31T00:17:44;12.50;44.10
5118;DHT22;2578;51.622;7.046;2023-10-31T00:20:10;12.30;1.00
5118;DHT22;2578;51.622;7.046;2023-10-31T00:22:36;11.90;99.90
5118;DHT22;2578;51.622;7.046;2023-10-31T00:25:02;11.80;99.90
5118;DHT22;2578;51.622;7.046;2023-10-31T00:27:27;11.60;99.90
5118;DHT22;2578;51.622;7.046;2023-10-31T00:29:53;13.20;99.90
5118;DHT22;2578;51.622;7.046;2023-10-31T00:32:18;11.20;99.90
5118;DHT22;2578;51.622;7.046;2023-10-31T00:34:44;11.20;99.90
5118;DHT22;2578;51.622;7.046;2023-10-31T00:37:10;11.10;99.90
5118;DHT22;2578;51.622;7.046;2023-10-31T00:39:35;11.00;99.90
5118;DHT22;2578;51.622;7.046;2023-10-31T00:42:01;10.80;99.90
5118;DHT22;2578;51.622;7.046;2023-10-31T00:44:26;10.80;99.90
5118;DHT22;2578;51.622;7.046;2023-10-31T00:46:52;11.80;99.90
5118;DHT22;2578;51.622;7.046;2023-10-31T00:49:18;10.70;99.90
5118;DHT22;2578;51.622;7.046;2023-10-31T00:51:43;10.70;99.90
5118;DHT22;2578;51.622;7.046;2023-10-31T00:54:09;10.70;99.90
5118;DHT22;2578;51.622;7.046;2023-10-31T00:56:34;10.60;99.90
5118;DHT22;2578;51.622;7.046;2023-10-31T00:59:00;10.60;99.90
5118;DHT22;2578;51.622;7.046;2023-10-31T01:01:26;10.60;99.90
5118;DHT22;2578;51.622;7.046;2023-10-31T01:03:52;10.70;99.90
5118;DHT22;2578;51.622;7.046;2023-10-31T01:06:18;10.60;99.90
5118;DHT22;2578;51.622;7.046;2023-10-31T01:08:43;12.00;99.90
5118;DHT22;2578;51.622;7.046;2023-10-31T01:11:09;10.60;99.90
5118;DHT22;2578;51.622;7.046;2023-10-31T01:13:35;10.60;90.80
5118;DHT22;2578;51.622;7.046;2023-10-31T01:16:01;10.50;1.00
5118;DHT22;2578;51.622;7.046;2023-10-31T01:18:26;10.50;1.00
5118;DHT22;2578;51.622;7.046;2023-10-31T01:20:52;10.50;1.00
5118;DHT22;2578;51.622;7.046;2023-10-31T01:23:17;10.40;1.00
5118;DHT22;2578;51.622;7.046;2023-10-31T01:25:43;10.40;1.00
5118;DHT22;2578;51.622;7.046;2023-10-31T01:28:09;10.80;1.00
5118;DHT22;2578;51.622;7.046;2023-10-31T01:30:35;11.60;1.00
5118;DHT22;2578;51.622;7.046;2023-10-31T01:33:02;10.40;1.00
5118;DHT22;2578;51.622;7.046;2023-10-31T01:35:28;10.30;1.00
5118;DHT22;2578;51.622;7.046;2023-10-31T01:37:53;10.40;1.00
5118;DHT22;2578;51.622;7.046;2023-10-31T01:40:19;10.30;1.00
5118;DHT22;2578;51.622;7.046;2023-10-31T01:42:45;10.20;1.00
5118;DHT22;2578;51.622;7.046;2023-10-31T01:45:11;10.20;1.00
5118;DHT22;2578;51.622;7.046;2023-10-31T01:47:37;10.20;1.00
5118;DHT22;2578;51.622;7.046;2023-10-31T01:50:03;10.10;1.00
5118;DHT22;2578;51.622;7.046;2023-10-31T01:52:31;10.10;1.00
5118;DHT22;2578;51.622;7.046;2023-10-31T01:54:58;10.10;1.00
5118;DHT22;2578;51.622;7.046;2023-10-31T01:57:24;10.10;1.00
5118;DHT22;2578;51.622;7.046;2023-10-31T01:59:50;11.40;1.00
5118;DHT22;2578;51.622;7.046;2023-10-31T02:02:16;10.10;99.90
5118;DHT22;2578;51.622;7.046;2023-10-31T02:04:42;10.00;99.90
5118;DHT22;2578;51.622;7.046;2023-10-31T02:07:07;10.70;99.90
5118;DHT22;2578;51.622;7.046;2023-10-31T02:09:33;10.00;1.00
5118;DHT22;2578;51.622;7.046;2023-10-31T02:11:59;10.00;99.90
5118;DHT22;2578;51.622;7.046;2023-10-31T02:14:24;10.00;1.00
5118;DHT22;2578;51.622;7.046;2023-10-31T02:16:50;10.00;1.00
5118;DHT22;2578;51.622;7.046;2023-10-31T02:19:20;10.90;1.00
5118;DHT22;2578;51.622;7.046;2023-10-31T02:21:46;10.80;1.00
5118;DHT22;2578;51.622;7.046;2023-10-31T02:24:12;10.10;1.00
5118;DHT22;2578;51.622;7.046;2023-10-31T02:26:38;10.10;1.00
5118;DHT22;2578;51.622;7.046;2023-10-31T02:29:03;10.10;1.00
5118;DHT22;2578;51.622;7.046;2023-10-31T02:31:30;10.10;1.00
5118;DHT22;2578;51.622;7.046;2023-10-31T02:33:56;10.10;1.00
5118;DHT22;2578;51.622;7.046;2023-10-31T02:36:22;10.10;1.00
5118;DHT22;2578;51.622;7.046;2023-10-31T02:38:49;10.20;1.00
5118;DHT22;2578;51.622;7.046;2023-10-31T02:41:15;10.20;1.00
5118;DHT22;2578;51.622;7.046;2023-10-31T02:43:41;10.20;1.00
5118;DHT22;2578;51.622;7.046;2023-10-31T02:46:07;10.20;1.00
5118;DHT22;2578;51.622;7.046;2023-10-31T02:48:33;10.20;1.00
5118;DHT22;2578;51.622;7.046;2023-10-31T02:51:05;10.20;1.00
5118;DHT22;2578;51.622;7.046;2023-10-31T02:53:32;10.10;1.00
5118;DHT22;2578;51.622;7.046;2023-10-31T02:55:58;10.10;1.00
5118;DHT22;2578;51.622;7.046;2023-10-31T02:58:23;10.10;1.00
5118;DHT22;2578;51.622;7.046;2023-10-31T03:00:49;10.10;35.60
5118;DHT22;2578;51.622;7.046;2023-10-31T03:03:15;10.10;89.90
5118;DHT22;2578;51.622;7.046;2023-10-31T03:05:41;10.10;99.90
5118;DHT22;2578;51.622;7.046;2023-10-31T03:08:07;10.00;99.90
5118;DHT22;2578;51.622;7.046;2023-10-31T03:10:36;10.00;99.90
5118;DHT22;2578;51.622;7.046;2023-10-31T03:13:01;10.00;99.90
5118;DHT22;2578;51.622;7.046;2023-10-31T03:15:28;10.00;99.90
5118;DHT22;2578;51.622;7.046;2023-10-31T03:17:53;9.90;99.90
5118;DHT22;2578;51.622;7.046;2023-10-31T03:20:19;10.40;99.90
5118;DHT22;2578;51.622;7.046;2023-10-31T03:22:45;9.90;1.00
5118;DHT22;2578;51.622;7.046;2023-10-31T03:25:10;9.90;1.00
5118;DHT22;2578;51.622;7.046;2023-10-31T03:27:36;9.90;1.00
5118;DHT22;2578;51.622;7.046;2023-10-31T03:30:02;10.00;1.00
5118;DHT22;2578;51.622;7.046;2023-10-31T03:32:27;10.00;1.00
5118;DHT22;2578;51.622;7.046;2023-10-31T03:34:53;10.00;1.00
5118;DHT22;2578;51.622;7.046;2023-10-31T03:37:19;10.10;1.00
5118;DHT22;2578;51.622;7.046;2023-10-31T03:39:44;10.10;1.00
5118;DHT22;2578;51.622;7.046;2023-10-31T03:42:10;10.30;1.00
5118;DHT22;2578;51.622;7.046;2023-10-31T03:44:36;10.10;1.00
5118;DHT22;2578;51.622;7.046;2023-10-31T03:47:02;10.20;1.00
5118;DHT22;2578;51.622;7.046;2023-10-31T03:49:27;10.10;1.00
5118;DHT22;2578;51.622;7.046;2023-10-31T03:51:53;10.20;1.00
5118;DHT22;2578;51.622;7.046;2023-10-31T03:54:19;10.10;1.00
5118;DHT22;2578;51.622;7.046;2023-10-31T03:56:44;10.20;1.00
5118;DHT22;2578;51.622;7.046;2023-10-31T03:59:10;10.20;1.00
5118;DHT22;2578;51.622;7.046;2023-10-31T04:01:36;10.20;1.00
5118;DHT22;2578;51.622;7.046;2023-10-31T04:04:02;10.20;1.00
5118;DHT22;2578;51.622;7.046;2023-10-31T04:06:28;10.20;1.00
5118;DHT22;2578;51.622;7.046;2023-10-31T04:08:54;11.70;1.00
5118;DHT22;2578;51.622;7.046;2023-10-31T04:11:20;10.20;1.00
5118;DHT22;2578;51.622;7.046;2023-10-31T04:13:45;10.30;1.00
5118;DHT22;2578;51.622;7.046;2023-10-31T04:16:11;10.40;1.00
5118;DHT22;2578;51.622;7.046;2023-10-31T04:18:37;10.30;99.90
5118;DHT22;2578;51.622;7.046;2023-10-31T04:21:03;10.30;99.90
5118;DHT22;2578;51.622;7.046;2023-10-31T04:23:29;10.30;99.90
5118;DHT22;2578;51.622;7.046;2023-10-31T04:25:54;11.90;99.90
5118;DHT22;2578;51.622;7.046;2023-10-31T04:28:20;10.40;99.90
5118;DHT22;2578;51.622;7.046;2023-10-31T04:30:45;10.30;99.90
5118;DHT22;2578;51.622;7.046;2023-10-31T04:33:11;10.50;99.90
5118;DHT22;2578;51.622;7.046;2023-10-31T04:35:37;10.40;99.90
5118;DHT22;2578;51.622;7.046;2023-10-31T04:38:02;10.40;99.90
5118;DHT22;2578;51.622;7.046;2023-10-31T04:40:28;10.40;99.90
5118;DHT22;2578;51.622;7.046;2023-10-31T04:42:54;10.40;99.90
5118;DHT22;2578;51.622;7.046;2023-10-31T04:45:20;10.40;99.90
5118;DHT22;2578;51.622;7.046;2023-10-31T04:47:46;10.40;99.90
5118;DHT22;2578;51.622;7.046;2023-10-31T04:50:11;10.40;99.90
5118;DHT22;2578;51.622;7.046;2023-10-31T04:52:37;10.40;99.90
5118;DHT22;2578;51.622;7.046;2023-10-31T04:55:03;10.60;99.90
5118;DHT22;2578;51.622;7.046;2023-10-31T04:57:29;10.40;99.90
5118;DHT22;2578;51.622;7.046;2023-10-31T04:59:54;10.50;92.90
5118;DHT22;2578;51.622;7.046;2023-10-31T05:02:22;10.40;1.00
5118;DHT22;2578;51.622;7.046;2023-10-31T05:04:48;11.60;1.00
5118;DHT22;2578;51.622;7.046;2023-10-31T05:07:19;10.40;1.00
5118;DHT22;2578;51.622;7.046;2023-10-31T05:09:45;10.40;1.00
5118;DHT22;2578;51.622;7.046;2023-10-31T05:12:11;10.40;1.00
5118;DHT22;2578;51.622;7.046;2023-10-31T05:14:37;10.40;8.00
5118;DHT22;2578;51.622;7.046;2023-10-31T05:17:03;10.30;80.70
5118;DHT22;2578;51.622;7.046;2023-10-31T05:19:29;10.30;99.90
5118;DHT22;2578;51.622;7.046;2023-10-31T05:21:54;10.20;99.90
5118;DHT22;2578;51.622;7.046;2023-10-31T05:24:20;10.20;99.90
5118;DHT22;2578;51.622;7.046;2023-10-31T05:26:46;10.20;99.90
5118;DHT22;2578;51.622;7.046;2023-10-31T05:29:12;10.50;99.90
5118;DHT22;2578;51.622;7.046;2023-10-31T05:31:37;10.70;99.90
5118;DHT22;2578;51.622;7.046;2023-10-31T05:34:03;10.20;99.90
5118;DHT22;2578;51.622;7.046;2023-10-31T05:36:32;10.20;99.90
5118;DHT22;2578;51.622;7.046;2023-10-31T05:38:58;10.20;99.90
5118;DHT22;2578;51.622;7.046;2023-10-31T05:41:23;10.20;99.90
5118;DHT22;2578;51.622;7.046;2023-10-31T05:43:49;10.20;99.90
5118;DHT22;2578;51.622;7.046;2023-10-31T05:46:15;10.20;99.90
5118;DHT22;2578;51.622;7.046;2023-10-31T05:48:45;10.20;99.90
5118;DHT22;2578;51.622;7.046;2023-10-31T05:51:16;10.10;99.90
5118;DHT22;2578;51.622;7.046;2023-10-31T05:53:44;10.10;99.90
5118;DHT22;2578;51.622;7.046;2023-10-31T05:56:11;10.10;99.90
5118;DHT22;2578;51.622;7.046;2023-10-31T05:58:38;10.10;99.90
5118;DHT22;2578;51.622;7.046;2023-10-31T06:01:04;10.10;99.90
5118;DHT22;2578;51.622;7.046;2023-10-31T06:03:30;10.00;99.90
5118;DHT22;2578;51.622;7.046;2023-10-31T06:05:56;10.00;99.90
5118;DHT22;2578;51.622;7.046;2023-10-31T06:08:21;10.00;99.90
5118;DHT22;2578;51.622;7.046;2023-10-31T06:10:50;9.90;99.90
5118;DHT22;2578;51.622;7.046;2023-10-31T06:13:16;9.90;99.90
5118;DHT22;2578;51.622;7.046;2023-10-31T06:15:42;9.90;99.90
5118;DHT22;2578;51.622;7.046;2023-10-31T06:18:08;9.90;99.90
5118;DHT22;2578;51.622;7.046;2023-10-31T06:20:33;10.00;99.90
5118;DHT22;2578;51.622;7.046;2023-10-31T06:23:00;9.90;99.90
5118;DHT22;2578;51.622;7.046;2023-10-31T06:25:29;9.90;99.90
5118;DHT22;2578;51.622;7.046;2023-10-31T06:27:55;9.90;99.90
5118;DHT22;2578;51.622;7.046;2023-10-31T06:30:20;9.80;99.90
5118;DHT22;2578;51.622;7.046;2023-10-31T06:32:46;9.90;99.90
5118;DHT22;2578;51.622;7.046;2023-10-31T06:35:12;9.90;99.90
5118;DHT22;2578;51.622;7.046;2023-10-31T06:37:37;10.00;99.90
5118;DHT22;2578;51.622;7.046;2023-10-31T06:40:04;10.00;99.90
5118;DHT22;2578;51.622;7.046;2023-10-31T06:42:30;10.00;99.90
5118;DHT22;2578;51.622;7.046;2023-10-31T06:44:56;10.00;99.90
5118;DHT22;2578;51.622;7.046;2023-10-31T06:47:21;10.00;99.90
5118;DHT22;2578;51.622;7.046;2023-10-31T06:49:47;10.00;99.90
5118;DHT22;2578;51.622;7.046;2023-10-31T06:52:13;9.90;35.80
5118;DHT22;2578;51.622;7.046;2023-10-31T06:54:38;9.90;41.00
5118;DHT22;2578;51.622;7.046;2023-10-31T06:57:04;10.10;66.40
5118;DHT22;2578;51.622;7.046;2023-10-31T06:59:30;10.00;99.90
5118;DHT22;2578;51.622;7.046;2023-10-31T07:01:56;10.10;99.90
5118;DHT22;2578;51.622;7.046;2023-10-31T07:04:22;10.10;99.90
5118;DHT22;2578;51.622;7.046;2023-10-31T07:06:47;10.10;99.90
5118;DHT22;2578;51.622;7.046;2023-10-31T07:09:14;10.20;99.90
5118;DHT22;2578;51.622;7.046;2023-10-31T07:11:40;10.20;99.90
5118;DHT22;2578;51.622;7.046;2023-10-31T07:14:05;10.20;99.90
5118;DHT22;2578;51.622;7.046;2023-10-31T07:16:32;10.30;99.90
5118;DHT22;2578;51.622;7.046;2023-10-31T07:18:58;10.30;99.90
5118;DHT22;2578;51.622;7.046;2023-10-31T07:21:24;10.40;99.90
5118;DHT22;2578;51.622;7.046;2023-10-31T07:23:51;10.30;93.40
5118;DHT22;2578;51.622;7.046;2023-10-31T07:26:17;10.30;99.90
5118;DHT22;2578;51.622;7.046;2023-10-31T07:28:42;10.30;51.50
5118;DHT22;2578;51.622;7.046;2023-10-31T07:31:08;10.30;45.00
5118;DHT22;2578;51.622;7.046;2023-10-31T07:33:34;10.30;9.20
5118;DHT22;2578;51.622;7.046;2023-10-31T07:36:00;10.30;5.40
5118;DHT22;2578;51.622;7.046;2023-10-31T07:38:26;10.40;7.60
5118;DHT22;2578;51.622;7.046;2023-10-31T07:40:51;10.50;27.00
5118;DHT22;2578;51.622;7.046;2023-10-31T07:43:17;10.60;1.00
5118;DHT22;2578;51.622;7.046;2023-10-31T07:45:43;10.60;1.00
5118;DHT22;2578;51.622;7.046;2023-10-31T07:48:09;10.60;1.00
5118;DHT22;2578;51.622;7.046;2023-10-31T07:50:34;10.60;1.00
5118;DHT22;2578;51.622;7.046;2023-10-31T07:53:00;10.60;1.00
5118;DHT22;2578;51.622;7.046;2023-10-31T07:55:26;10.60;1.00
5118;DHT22;2578;51.622;7.046;2023-10-31T07:57:51;10.60;99.90
5118;DHT22;2578;51.622;7.046;2023-10-31T08:00:17;10.50;99.90
5118;DHT22;2578;51.622;7.046;2023-10-31T08:02:43;10.50;99.90
5118;DHT22;2578;51.622;7.046;2023-10-31T08:05:10;10.50;99.90
5118;DHT22;2578;51.622;7.046;2023-10-31T08:07:36;10.50;99.90
5118;DHT22;2578;51.622;7.046;2023-10-31T08:10:02;10.50;99.90
5118;DHT22;2578;51.622;7.046;2023-10-31T08:12:29;10.70;99.90
5118;DHT22;2578;51.622;7.046;2023-10-31T08:14:55;10.70;99.90
5118;DHT22;2578;51.622;7.046;2023-10-31T08:17:21;10.70;99.90
5118;DHT22;2578;51.622;7.046;2023-10-31T08:19:46;10.70;99.90
5118;DHT22;2578;51.622;7.046;2023-10-31T08:22:13;10.80;99.90
5118;DHT22;2578;51.622;7.046;2023-10-31T08:24:39;10.70;99.90
5118;DHT22;2578;51.622;7.046;2023-10-31T08:27:05;10.80;99.90
5118;DHT22;2578;51.622;7.046;2023-10-31T08:29:31;10.80;99.90
5118;DHT22;2578;51.622;7.046;2023-10-31T08:31:57;10.80;99.90
5118;DHT22;2578;51.622;7.046;2023-10-31T08:34:23;11.10;99.90
5118;DHT22;2578;51.622;7.046;2023-10-31T08:36:48;11.00;99.90
5118;DHT22;2578;51.622;7.046;2023-10-31T08:39:14;11.00;99.90
5118;DHT22;2578;51.622;7.046;2023-10-31T08:41:56;11.10;99.90
5118;DHT22;2578;51.622;7.046;2023-10-31T08:44:22;11.10;99.90
5118;DHT22;2578;51.622;7.046;2023-10-31T08:46:49;11.20;99.90
5118;DHT22;2578;51.622;7.046;2023-10-31T08:49:15;11.20;99.90
5118;DHT22;2578;51.622;7.046;2023-10-31T08:51:41;11.30;99.90
5118;DHT22;2578;51.622;7.046;2023-10-31T08:54:07;11.40;99.90
5118;DHT22;2578;51.622;7.046;2023-10-31T08:56:34;11.40;42.10
5118;DHT22;2578;51.622;7.046;2023-10-31T08:59:00;11.40;58.70
5118;DHT22;2578;51.622;7.046;2023-10-31T09:01:27;11.40;56.50
5118;DHT22;2578;51.622;7.046;2023-10-31T09:03:54;11.10;73.70
5118;DHT22;2578;51.622;7.046;2023-10-31T09:06:20;11.00;56.90
5118;DHT22;2578;51.622;7.046;2023-10-31T09:08:45;10.90;77.40
5118;DHT22;2578;51.622;7.046;2023-10-31T09:11:11;11.10;98.50
5118;DHT22;2578;51.622;7.046;2023-10-31T09:13:37;11.20;99.90
5118;DHT22;2578;51.622;7.046;2023-10-31T09:16:03;11.30;80.10
5118;DHT22;2578;51.622;7.046;2023-10-31T09:18:28;11.30;43.60
5118;DHT22;2578;51.622;7.046;2023-10-31T09:20:54;11.10;4.90
5118;DHT22;2578;51.622;7.046;2023-10-31T09:23:20;11.00;27.30
5118;DHT22;2578;51.622;7.046;2023-10-31T09:25:46;11.00;99.90
5118;DHT22;2578;51.622;7.046;2023-10-31T09:28:12;11.50;99.90
5118;DHT22;2578;51.622;7.046;2023-10-31T09:30:37;11.10;25.40
5118;DHT22;2578;51.622;7.046;2023-10-31T09:33:03;11.20;54.50
5118;DHT22;2578;51.622;7.046;2023-10-31T09:35:29;11.20;64.40
5118;DHT22;2578;51.622;7.046;2023-10-31T09:37:54;11.40;78.70
5118;DHT22;2578;51.622;7.046;2023-10-31T09:40:21;11.50;14.20
5118;DHT22;2578;51.622;7.046;2023-10-31T09:42:47;11.70;17.90
5118;DHT22;2578;51.622;7.046;2023-10-31T09:45:13;11.70;5.20
5118;DHT22;2578;51.622;7.046;2023-10-31T09:47:39;12.10;3.70
5118;DHT22;2578;51.622;7.046;2023-10-31T09:50:06;12.20;1.00
5118;DHT22;2578;51.622;7.046;2023-10-31T09:52:34;12.50;1.00
5118;DHT22;2578;51.622;7.046;2023-10-31T09:55:01;12.60;1.00
5118;DHT22;2578;51.622;7.046;2023-10-31T09:57:27;12.50;1.00
5118;DHT22;2578;51.622;7.046;2023-10-31T09:59:53;12.50;1.00
5118;DHT22;2578;51.622;7.046;2023-10-31T10:02:19;12.70;1.00
5118;DHT22;2578;51.622;7.046;2023-10-31T10:04:44;12.80;1.00
5118;DHT22;2578;51.622;7.046;2023-10-31T10:07:17;12.90;1.00
5118;DHT22;2578;51.622;7.046;2023-10-31T10:09:44;12.90;1.00
5118;DHT22;2578;51.622;7.046;2023-10-31T10:12:14;13.00;1.00
5118;DHT22;2578;51.622;7.046;2023-10-31T10:14:40;13.00;99.90
5118;DHT22;2578;51.622;7.046;2023-10-31T10:17:21;13.00;99.90
5118;DHT22;2578;51.622;7.046;2023-10-31T10:19:47;12.70;99.90
5118;DHT22;2578;51.622;7.046;2023-10-31T10:22:13;12.60;99.90
5118;DHT22;2578;51.622;7.046;2023-10-31T10:24:41;12.60;99.90
5118;DHT22;2578;51.622;7.046;2023-10-31T10:27:10;12.60;99.90
5118;DHT22;2578;51.622;7.046;2023-10-31T10:29:37;12.60;99.90
5118;DHT22;2578;51.622;7.046;2023-10-31T10:32:06;10.80;99.90
5118;DHT22;2578;51.622;7.046;2023-10-31T10:34:34;12.30;99.90
5118;DHT22;2578;51.622;7.046;2023-10-31T10:37:01;12.30;99.90
5118;DHT22;2578;51.622;7.046;2023-10-31T10:39:32;12.20;99.90
5118;DHT22;2578;51.622;7.046;2023-10-31T10:42:01;12.20;99.90
5118;DHT22;2578;51.622;7.046;2023-10-31T10:44:35;12.30;99.90
5118;DHT22;2578;51.622;7.046;2023-10-31T10:47:03;12.40;99.90
5118;DHT22;2578;51.622;7.046;2023-10-31T10:49:33;12.50;99.90
5118;DHT22;2578;51.622;7.046;2023-10-31T10:52:04;12.40;99.90
5118;DHT22;2578;51.622;7.046;2023-10-31T10:54:45;12.40;99.90
5118;DHT22;2578;51.622;7.046;2023-10-31T10:57:26;12.30;99.90
5118;DHT22;2578;51.622;7.046;2023-10-31T11:00:02;12.40;99.90
5118;DHT22;2578;51.622;7.046;2023-10-31T11:02:30;12.60;99.90
5118;DHT22;2578;51.622;7.046;2023-10-31T11:04:56;12.60;99.90
5118;DHT22;2578;51.622;7.046;2023-10-31T11:07:22;13.80;99.90
5118;DHT22;2578;51.622;7.046;2023-10-31T11:09:49;12.40;99.90
5118;DHT22;2578;51.622;7.046;2023-10-31T11:12:15;12.70;99.90
5118;DHT22;2578;51.622;7.046;2023-10-31T11:14:42;12.70;99.90
5118;DHT22;2578;51.622;7.046;2023-10-31T11:17:31;12.80;99.90
5118;DHT22;2578;51.622;7.046;2023-10-31T11:20:00;12.90;99.90
5118;DHT22;2578;51.622;7.046;2023-10-31T11:22:36;13.00;99.90
5118;DHT22;2578;51.622;7.046;2023-10-31T11:25:02;12.90;99.90
5118;DHT22;2578;51.622;7.046;2023-10-31T11:27:27;12.80;99.90
5118;DHT22;2578;51.622;7.046;2023-10-31T11:29:54;12.40;99.90
5118;DHT22;2578;51.622;7.046;2023-10-31T11:32:22;12.70;99.90
5118;DHT22;2578;51.622;7.046;2023-10-31T11:34:47;12.70;99.90
5118;DHT22;2578;51.622;7.046;2023-10-31T11:42:38;12.40;99.90
5118;DHT22;2578;51.622;7.046;2023-10-31T11:45:04;12.50;99.90
5118;DHT22;2578;51.622;7.046;2023-10-31T11:47:51;12.40;99.90
5118;DHT22;2578;51.622;7.046;2023-10-31T11:50:17;12.90;99.90
5118;DHT22;2578;51.622;7.046;2023-10-31T11:52:43;13.50;99.90
5118;DHT22;2578;51.622;7.046;2023-10-31T11:55:12;13.60;99.90
5118;DHT22;2578;51.622;7.046;2023-10-31T11:57:41;13.60;99.90
5118;DHT22;2578;51.622;7.046;2023-10-31T12:00:07;13.80;99.90
5118;DHT22;2578;51.622;7.046;2023-10-31T12:03:00;14.00;99.90
5118;DHT22;2578;51.622;7.046;2023-10-31T12:05:26;13.90;99.90
5118;DHT22;2578;51.622;7.046;2023-10-31T12:07:53;13.70;99.90
5118;DHT22;2578;51.622;7.046;2023-10-31T12:10:26;13.60;99.90
5118;DHT22;2578;51.622;7.046;2023-10-31T12:12:55;13.50;99.90
5118;DHT22;2578;51.622;7.046;2023-10-31T12:15:21;13.50;99.90
5118;DHT22;2578;51.622;7.046;2023-10-31T12:17:47;13.40;99.90
5118;DHT22;2578;51.622;7.046;2023-10-31T12:20:13;13.20;99.90
5118;DHT22;2578;51.622;7.046;2023-10-31T12:22:39;12.90;99.90
5118;DHT22;2578;51.622;7.046;2023-10-31T12:25:06;12.90;99.90
5118;DHT22;2578;51.622;7.046;2023-10-31T12:27:46;12.80;99.90
5118;DHT22;2578;51.622;7.046;2023-10-31T12:30:13;12.80;99.90
5118;DHT22;2578;51.622;7.046;2023-10-31T12:32:40;12.90;99.90
5118;DHT22;2578;51.622;7.046;2023-10-31T12:35:11;12.90;99.90
5118;DHT22;2578;51.622;7.046;2023-10-31T12:37:45;12.90;99.90
5118;DHT22;2578;51.622;7.046;2023-10-31T12:40:13;12.80;99.90
5118;DHT22;2578;51.622;7.046;2023-10-31T12:42:41;12.60;99.90
5118;DHT22;2578;51.622;7.046;2023-10-31T12:45:07;12.60;99.90
5118;DHT22;2578;51.622;7.046;2023-10-31T12:47:33;12.60;99.90
5118;DHT22;2578;51.622;7.046;2023-10-31T12:50:11;12.60;99.90
5118;DHT22;2578;51.622;7.046;2023-10-31T12:52:49;12.60;99.90
5118;DHT22;2578;51.622;7.046;2023-10-31T12:55:18;12.60;99.90
5118;DHT22;2578;51.622;7.046;2023-10-31T12:57:43;12.70;99.90
5118;DHT22;2578;51.622;7.046;2023-10-31T13:00:11;12.80;99.90
5118;DHT22;2578;51.622;7.046;2023-10-31T13:02:39;12.80;99.90
5118;DHT22;2578;51.622;7.046;2023-10-31T13:05:12;12.80;99.90
5118;DHT22;2578;51.622;7.046;2023-10-31T13:07:39;12.90;99.90
5118;DHT22;2578;51.622;7.046;2023-10-31T13:10:06;12.90;99.90
5118;DHT22;2578;51.622;7.046;2023-10-31T13:12:33;13.20;99.90
5118;DHT22;2578;51.622;7.046;2023-10-31T13:14:58;13.20;99.90
5118;DHT22;2578;51.622;7.046;2023-10-31T13:17:24;13.10;99.90
5118;DHT22;2578;51.622;7.046;2023-10-31T13:19:49;13.00;99.90
5118;DHT22;2578;51.622;7.046;2023-10-31T13:22:15;12.90;99.90
5118;DHT22;2578;51.622;7.046;2023-10-31T13:24:41;12.90;99.90
5118;DHT22;2578;51.622;7.046;2023-10-31T13:27:08;13.10;99.90
5118;DHT22;2578;51.622;7.046;2023-10-31T13:29:33;13.10;99.90
5118;DHT22;2578;51.622;7.046;2023-10-31T13:31:59;13.20;99.90
5118;DHT22;2578;51.622;7.046;2023-10-31T13:34:25;13.00;99.90
5118;DHT22;2578;51.622;7.046;2023-10-31T13:36:50;12.90;99.90
5118;DHT22;2578;51.622;7.046;2023-10-31T13:39:17;12.90;99.90
5118;DHT22;2578;51.622;7.046;2023-10-31T13:41:43;12.80;99.90
5118;DHT22;2578;51.622;7.046;2023-10-31T13:44:09;12.80;99.90
5118;DHT22;2578;51.622;7.046;2023-10-31T13:46:34;12.70;99.90
5118;DHT22;2578;51.622;7.046;2023-10-31T13:49:00;12.70;99.90
5118;DHT22;2578;51.622;7.046;2023-10-31T13:51:26;12.60;99.90
5118;DHT22;2578;51.622;7.046;2023-10-31T13:53:52;12.70;99.90
5118;DHT22;2578;51.622;7.046;2023-10-31T13:56:17;12.70;99.90
5118;DHT22;2578;51.622;7.046;2023-10-31T13:58:43;13.90;99.90
5118;DHT22;2578;51.622;7.046;2023-10-31T14:01:08;12.90;99.90
5118;DHT22;2578;51.622;7.046;2023-10-31T14:03:34;13.60;99.90
5118;DHT22;2578;51.622;7.046;2023-10-31T14:06:00;12.90;99.90
5118;DHT22;2578;51.622;7.046;2023-10-31T14:08:25;13.00;99.90
5118;DHT22;2578;51.622;7.046;2023-10-31T14:10:51;13.00;99.90
5118;DHT22;2578;51.622;7.046;2023-10-31T14:13:17;13.20;99.90
5118;DHT22;2578;51.622;7.046;2023-10-31T14:15:42;13.30;99.90
5118;DHT22;2578;51.622;7.046;2023-10-31T14:18:08;13.30;99.90
5118;DHT22;2578;51.622;7.046;2023-10-31T14:20:34;13.30;99.90
5118;DHT22;2578;51.622;7.046;2023-10-31T14:22:59;13.00;99.90
5118;DHT22;2578;51.622;7.046;2023-10-31T14:25:26;13.00;99.90
5118;DHT22;2578;51.622;7.046;2023-10-31T14:27:51;13.00;99.90
5118;DHT22;2578;51.622;7.046;2023-10-31T14:30:17;13.00;99.90
5118;DHT22;2578;51.622;7.046;2023-10-31T14:32:43;12.90;98.20
5118;DHT22;2578;51.622;7.046;2023-10-31T14:35:09;12.90;99.90
5118;DHT22;2578;51.622;7.046;2023-10-31T14:37:34;12.80;99.90
5118;DHT22;2578;51.622;7.046;2023-10-31T14:40:00;12.80;99.90
5118;DHT22;2578;51.622;7.046;2023-10-31T14:42:29;13.20;96.50
5118;DHT22;2578;51.622;7.046;2023-10-31T14:44:55;13.20;99.90
5118;DHT22;2578;51.622;7.046;2023-10-31T14:47:22;13.00;99.10
5118;DHT22;2578;51.622;7.046;2023-10-31T14:49:48;12.90;99.20
5118;DHT22;2578;51.622;7.046;2023-10-31T14:52:13;12.80;95.50
5118;DHT22;2578;51.622;7.046;2023-10-31T14:54:39;12.80;97.80
5118;DHT22;2578;51.622;7.046;2023-10-31T14:57:05;12.50;97.10
5118;DHT22;2578;51.622;7.046;2023-10-31T14:59:31;12.80;98.10
5118;DHT22;2578;51.622;7.046;2023-10-31T15:01:56;12.80;95.00
5118;DHT22;2578;51.622;7.046;2023-10-31T15:04:22;12.70;88.70
5118;DHT22;2578;51.622;7.046;2023-10-31T15:06:48;12.50;89.40
5118;DHT22;2578;51.622;7.046;2023-10-31T15:09:13;12.50;94.30
5118;DHT22;2578;51.622;7.046;2023-10-31T15:11:39;12.50;96.30
5118;DHT22;2578;51.622;7.046;2023-10-31T15:14:05;12.60;88.00
5118;DHT22;2578;51.622;7.046;2023-10-31T15:16:31;12.60;94.10
5118;DHT22;2578;51.622;7.046;2023-10-31T15:18:59;12.50;92.40
5118;DHT22;2578;51.622;7.046;2023-10-31T15:21:25;12.30;90.30
5118;DHT22;2578;51.622;7.046;2023-10-31T15:23:51;12.10;82.80
5118;DHT22;2578;51.622;7.046;2023-10-31T15:26:16;12.00;93.10
5118;DHT22;2578;51.622;7.046;2023-10-31T15:28:42;11.80;96.80
5118;DHT22;2578;51.622;7.046;2023-10-31T15:31:09;11.70;98.80
5118;DHT22;2578;51.622;7.046;2023-10-31T15:33:35;11.60;97.70
5118;DHT22;2578;51.622;7.046;2023-10-31T15:36:01;11.60;99.90
5118;DHT22;2578;51.622;7.046;2023-10-31T15:38:27;11.50;99.90
5118;DHT22;2578;51.622;7.046;2023-10-31T15:40:52;11.40;99.90
5118;DHT22;2578;51.622;7.046;2023-10-31T15:43:18;11.30;99.90
5118;DHT22;2578;51.622;7.046;2023-10-31T15:45:44;11.20;99.90
5118;DHT22;2578;51.622;7.046;2023-10-31T15:48:09;11.20;99.90
5118;DHT22;2578;51.622;7.046;2023-10-31T15:50:35;11.00;99.90
5118;DHT22;2578;51.622;7.046;2023-10-31T15:53:01;11.00;99.90
5118;DHT22;2578;51.622;7.046;2023-10-31T15:55:28;11.10;99.90
5118;DHT22;2578;51.622;7.046;2023-10-31T15:57:54;11.10;99.90
5118;DHT22;2578;51.622;7.046;2023-10-31T16:00:20;11.10;99.90
5118;DHT22;2578;51.622;7.046;2023-10-31T16:02:45;14.10;99.90
5118;DHT22;2578;51.622;7.046;2023-10-31T16:05:11;11.10;99.90
5118;DHT22;2578;51.622;7.046;2023-10-31T16:07:37;10.80;99.90